Time;durP1;ratioP1;P1;durP2;ratioP2;P2;SDS_P1;SDS_P2;PMS_P1;PMS_P2;Temp;Humidity;BMP_temperature;BMP_pressure;BME280_temperature;BME280_humidity;BME280_pressure;Samples;Min_cycle;Max_cycle;Signal;HPM_P1;HPM_P2
2020/12/21 00:00:13;;;;;;;28.88;20.63;;;4.00;92.30;;;;;;2071691;28;20484;-72
2020/12/21 00:01:16;;;;;;;28.92;19.63;;;3.90;92.30;;;;;;2071909;28;20113;-72
2020/12/21 00:02:17;;;;;;;28.77;19.50;;;3.90;92.40;;;;;;2072200;28;20085;-72
2020/12/21 00:03:17;;;;;;;27.25;18.52;;;3.90;92.40;;;;;;2071472;28;20033;-71
2020/12/21 00:04:19;;;;;;;28.45;19.60;;;4.00;92.50;;;;;;2071627;28;20053;-71
2020/12/21 00:05:19;;;;;;;30.70;20.60;;;4.00;92.50;;;;;;2071716;28;20076;-72
2020/12/21 00:06:20;;;;;;;30.80;19.95;;;4.00;92.50;;;;;;2072296;28;20034;-71
2020/12/21 00:07:20;;;;;;;28.75;19.67;;;4.00;92.50;;;;;;2072411;28;20029;-72
2020/12/21 00:08:21;;;;;;;30.48;20.67;;;4.00;92.50;;;;;;2071991;28;20452;-72
2020/12/21 00:09:23;;;;;;;29.38;19.88;;;4.00;92.50;;;;;;2071693;28;20080;-71
2020/12/21 00:10:23;;;;;;;28.85;19.67;;;4.00;92.50;;;;;;2072448;28;20026;-70
2020/12/21 00:11:35;;;;;;;29.30;19.25;;;4.00;92.40;;;;;;2071754;28;20370;-71
2020/12/21 00:12:36;;;;;;;28.35;19.80;;;4.00;92.40;;;;;;2065233;28;20057;-71
2020/12/21 00:13:42;;;;;;;27.25;18.83;;;4.10;92.40;;;;;;2071563;28;20037;-72
2020/12/21 00:14:43;;;;;;;27.75;19.08;;;4.00;92.40;;;;;;2072298;28;20030;-71
2020/12/21 00:15:44;;;;;;;29.67;19.50;;;4.10;92.50;;;;;;2063514;28;20070;-71
2020/12/21 00:16:50;;;;;;;30.92;20.25;;;4.10;92.50;;;;;;2063600;28;20030;-71
2020/12/21 00:17:51;;;;;;;29.08;19.58;;;4.10;92.50;;;;;;2071545;28;20493;-71
2020/12/21 00:18:52;;;;;;;28.98;19.70;;;4.00;92.50;;;;;;2071351;28;20037;-70
2020/12/21 00:19:52;;;;;;;30.23;19.70;;;4.10;92.50;;;;;;2072120;28;20030;-70
2020/12/21 00:20:53;;;;;;;29.92;20.00;;;4.10;92.60;;;;;;2072189;28;20025;-72
2020/12/21 00:21:54;;;;;;;28.40;19.70;;;4.00;92.60;;;;;;2071397;28;20072;-71
2020/12/21 00:22:54;;;;;;;27.45;19.38;;;4.00;92.70;;;;;;2071542;28;20748;-71
2020/12/21 00:23:55;;;;;;;32.22;21.05;;;4.00;92.70;;;;;;2072067;28;20088;-70
2020/12/21 00:24:56;;;;;;;28.70;19.02;;;4.10;92.70;;;;;;2071448;28;20144;-72
2020/12/21 00:25:56;;;;;;;28.13;19.85;;;4.10;92.70;;;;;;2071529;28;20701;-72
2020/12/21 00:26:57;;;;;;;30.48;20.17;;;4.10;92.80;;;;;;2072296;28;20022;-72
2020/12/21 00:27:58;;;;;;;30.60;20.40;;;4.10;92.80;;;;;;2072157;28;20104;-71
2020/12/21 00:28:59;;;;;;;30.05;20.00;;;4.10;92.80;;;;;;2072005;28;20026;-71
2020/12/21 00:29:59;;;;;;;30.40;20.42;;;4.00;93.30;;;;;;2072154;28;20021;-72
2020/12/21 00:31:00;;;;;;;30.33;20.33;;;4.00;93.10;;;;;;2071555;28;20030;-71
2020/12/21 00:32:01;;;;;;;29.80;20.45;;;4.00;93.20;;;;;;2071400;28;20022;-70
2020/12/21 00:33:01;;;;;;;29.80;20.17;;;4.00;93.20;;;;;;2072108;28;20022;-72
2020/12/21 00:34:04;;;;;;;28.33;19.20;;;4.00;93.20;;;;;;2071420;28;20033;-72
2020/12/21 00:35:04;;;;;;;30.17;19.55;;;4.00;93.30;;;;;;2071504;28;20068;-71
2020/12/21 00:36:06;;;;;;;30.20;20.13;;;4.00;93.30;;;;;;2076288;28;20456;-72
2020/12/21 00:37:06;;;;;;;31.50;20.75;;;4.00;93.40;;;;;;2079689;28;20029;-72
2020/12/21 00:38:08;;;;;;;31.02;20.05;;;4.00;93.80;;;;;;2080256;28;20381;-71
2020/12/21 00:39:09;;;;;;;30.42;20.63;;;4.00;93.60;;;;;;2079498;28;20183;-72
2020/12/21 00:40:10;;;;;;;31.08;21.02;;;3.90;93.60;;;;;;2071599;28;20030;-72
2020/12/21 00:41:20;;;;;;;30.95;20.08;;;4.00;93.70;;;;;;2079688;28;20032;-72
2020/12/21 00:42:20;;;;;;;31.83;20.35;;;4.00;93.70;;;;;;2080233;28;20025;-72
2020/12/21 00:43:21;;;;;;;31.27;21.08;;;4.00;93.80;;;;;;2080256;28;20100;-72
2020/12/21 00:44:21;;;;;;;30.45;20.88;;;4.00;93.80;;;;;;2079576;28;20045;-72
2020/12/21 00:45:22;;;;;;;33.03;21.38;;;4.00;93.80;;;;;;2079622;28;20041;-72
2020/12/21 00:46:25;;;;;;;30.45;19.98;;;3.90;93.80;;;;;;2079901;28;20053;-71
2020/12/21 00:47:26;;;;;;;32.60;21.02;;;3.90;93.90;;;;;;2079756;28;20487;-73
2020/12/21 00:48:30;;;;;;;34.47;22.48;;;3.90;94.00;;;;;;2080147;28;20030;-72
2020/12/21 00:49:31;;;;;;;35.30;22.08;;;3.90;94.10;;;;;;2079168;28;20025;-72
2020/12/21 00:50:31;;;;;;;34.92;22.33;;;3.90;94.20;;;;;;2071297;28;20026;-71
2020/12/21 00:51:33;;;;;;;32.00;20.95;;;3.80;94.20;;;;;;2079457;28;20658;-71
2020/12/21 00:52:34;;;;;;;30.33;20.17;;;3.90;94.30;;;;;;2079652;28;20033;-72
2020/12/21 00:53:35;;;;;;;35.40;22.55;;;3.80;94.10;;;;;;2071169;28;20414;-71
2020/12/21 00:54:36;;;;;;;33.65;22.10;;;3.80;94.40;;;;;;2079594;28;20034;-72
2020/12/21 00:55:36;;;;;;;36.42;22.70;;;3.80;94.40;;;;;;2071412;28;20072;-71
2020/12/21 00:56:37;;;;;;;34.03;21.73;;;3.80;94.40;;;;;;2079663;28;20041;-71
2020/12/21 00:57:38;;;;;;;33.80;21.52;;;3.80;94.80;;;;;;2079457;28;20079;-73
2020/12/21 00:58:42;;;;;;;35.08;21.42;;;3.80;94.50;;;;;;2079635;28;20030;-72
2020/12/21 00:59:43;;;;;;;32.42;20.88;;;3.80;94.60;;;;;;2087522;28;20040;-72
2020/12/21 01:00:43;;;;;;;34.08;21.73;;;3.80;94.70;;;;;;2079611;28;20037;-72
2020/12/21 01:01:44;;;;;;;34.95;21.63;;;3.80;95.10;;;;;;2079572;28;20124;-72
2020/12/21 01:02:45;;;;;;;34.90;22.02;;;3.80;94.80;;;;;;2080139;28;20095;-72
2020/12/21 01:03:45;;;;;;;36.05;22.55;;;3.80;94.80;;;;;;2079316;28;20029;-71
2020/12/21 01:04:46;;;;;;;35.92;22.23;;;3.70;94.90;;;;;;2080943;28;20072;-72
2020/12/21 01:05:47;;;;;;;33.90;21.80;;;3.70;95.00;;;;;;2081634;28;20401;-72
2020/12/21 01:06:54;;;;;;;33.85;21.45;;;3.70;95.10;;;;;;2080482;28;20037;-71
2020/12/21 01:07:54;;;;;;;34.65;22.30;;;3.70;95.10;;;;;;2073571;28;20030;-72
2020/12/21 01:08:57;;;;;;;33.55;21.48;;;3.70;95.10;;;;;;2073244;28;20040;-72
2020/12/21 01:09:58;;;;;;;37.17;22.63;;;3.70;95.10;;;;;;2081176;28;20032;-69
2020/12/21 01:10:59;;;;;;;37.70;23.00;;;3.70;95.20;;;;;;2081313;28;20022;-72
2020/12/21 01:11:59;;;;;;;36.05;22.23;;;3.70;95.20;;;;;;2073430;28;20057;-72
2020/12/21 01:13:00;;;;;;;36.33;23.05;;;3.70;95.20;;;;;;2073587;28;20022;-70
2020/12/21 01:14:01;;;;;;;39.08;22.88;;;3.60;95.20;;;;;;2073575;28;20444;-73
2020/12/21 01:15:02;;;;;;;36.42;22.60;;;3.70;95.30;;;;;;2073023;28;20084;-70
2020/12/21 01:16:03;;;;;;;36.33;22.13;;;3.70;95.40;;;;;;2072946;28;20751;-71
2020/12/21 01:17:03;;;;;;;34.08;21.88;;;3.70;95.50;;;;;;2073601;28;20018;-70
2020/12/21 01:18:04;;;;;;;35.65;22.48;;;3.70;95.50;;;;;;2073554;28;20807;-72
2020/12/21 01:19:05;;;;;;;35.95;21.88;;;3.60;95.50;;;;;;2072556;28;20406;-73
2020/12/21 01:20:05;;;;;;;34.85;21.73;;;3.60;95.50;;;;;;2072805;28;20036;-72
2020/12/21 01:21:06;;;;;;;36.53;23.05;;;3.70;95.50;;;;;;2073348;28;20053;-72
2020/12/21 01:22:07;;;;;;;34.60;22.02;;;3.60;95.50;;;;;;2073390;28;20109;-72
2020/12/21 01:23:08;;;;;;;36.13;22.70;;;3.60;95.60;;;;;;2073282;28;20038;-73
2020/12/21 01:24:08;;;;;;;44.45;25.92;;;3.60;95.70;;;;;;2073445;28;20101;-72
2020/12/21 01:25:09;;;;;;;42.10;24.58;;;3.60;95.70;;;;;;2073497;28;20065;-71
2020/12/21 01:26:10;;;;;;;41.17;24.88;;;3.60;95.70;;;;;;2073813;28;20026;-70
2020/12/21 01:27:10;;;;;;;41.53;24.63;;;3.60;95.70;;;;;;2073631;28;20034;-71
2020/12/21 01:28:11;;;;;;;38.70;22.77;;;3.60;95.70;;;;;;2073755;28;20041;-71
2020/12/21 01:29:12;;;;;;;44.38;26.13;;;3.60;95.70;;;;;;2072650;28;20030;-70
2020/12/21 01:30:12;;;;;;;43.47;25.45;;;3.60;95.70;;;;;;2073555;28;20065;-71
2020/12/21 01:31:13;;;;;;;41.67;25.13;;;3.60;95.70;;;;;;2074024;28;20040;-71
2020/12/21 01:32:14;;;;;;;44.20;25.17;;;3.60;95.70;;;;;;2073983;28;20033;-71
2020/12/21 01:33:15;;;;;;;40.83;24.23;;;3.60;95.80;;;;;;2073677;28;20034;-70
2020/12/21 01:34:16;;;;;;;41.85;24.77;;;3.60;95.80;;;;;;2073575;28;20479;-70
2020/12/21 01:35:16;;;;;;;42.03;24.77;;;3.60;95.80;;;;;;2073537;28;20030;-70
2020/12/21 01:36:20;;;;;;;40.80;24.50;;;3.60;95.90;;;;;;2079919;28;20025;-70
2020/12/21 01:37:20;;;;;;;40.30;23.98;;;3.60;95.90;;;;;;2081078;28;20101;-71
2020/12/21 01:38:21;;;;;;;41.25;24.65;;;3.60;95.90;;;;;;2081057;28;20118;-72
2020/12/21 01:39:22;;;;;;;42.95;24.58;;;3.60;95.90;;;;;;2089000;28;20109;-71
2020/12/21 01:40:22;;;;;;;39.40;24.08;;;3.60;95.90;;;;;;2081055;28;20026;-70
2020/12/21 01:41:23;;;;;;;38.20;23.98;;;3.60;95.90;;;;;;2080854;28;20080;-70
2020/12/21 01:42:24;;;;;;;37.85;23.48;;;3.60;96.00;;;;;;2081052;28;20041;-71
2020/12/21 01:43:24;;;;;;;40.35;23.92;;;3.60;96.00;;;;;;2072831;28;20064;-70
2020/12/21 01:44:25;;;;;;;40.63;23.88;;;3.60;96.00;;;;;;2081067;28;20035;-72
2020/12/21 01:45:26;;;;;;;38.17;23.23;;;3.60;96.00;;;;;;2089491;28;20063;-71
2020/12/21 01:46:29;;;;;;;47.13;26.27;;;3.60;96.00;;;;;;2081587;28;20018;-70
2020/12/21 01:47:30;;;;;;;40.75;24.25;;;3.70;96.00;;;;;;2081722;28;20036;-71
2020/12/21 01:48:31;;;;;;;39.47;23.80;;;3.70;96.00;;;;;;2081656;28;20028;-72
2020/12/21 01:49:31;;;;;;;38.35;23.20;;;3.70;96.00;;;;;;2080532;28;20506;-73
2020/12/21 01:50:33;;;;;;;40.25;23.85;;;3.70;95.90;;;;;;2081151;28;20034;-72
2020/12/21 01:51:34;;;;;;;41.60;25.10;;;3.70;95.90;;;;;;2081584;28;20021;-71
2020/12/21 01:52:36;;;;;;;40.47;23.65;;;3.80;95.90;;;;;;2080829;28;20034;-72
2020/12/21 01:53:37;;;;;;;45.05;25.35;;;3.70;95.90;;;;;;2080807;28;20109;-72
2020/12/21 01:54:38;;;;;;;43.80;24.88;;;3.80;95.90;;;;;;2081214;28;20071;-73
2020/12/21 01:55:42;;;;;;;42.88;25.27;;;3.80;95.90;;;;;;2072434;28;20057;-71
2020/12/21 01:56:43;;;;;;;38.63;23.40;;;3.80;95.80;;;;;;2073054;28;20026;-72
2020/12/21 01:57:44;;;;;;;38.30;23.20;;;3.80;95.70;;;;;;2081307;28;20520;-72
2020/12/21 01:58:45;;;;;;;40.10;24.27;;;3.80;95.70;;;;;;2080588;28;20032;-72
2020/12/21 01:59:46;;;;;;;43.40;24.80;;;3.80;95.70;;;;;;2080196;28;20481;-72
2020/12/21 02:00:47;;;;;;;40.53;23.98;;;3.80;95.80;;;;;;2081523;28;20140;-71
2020/12/21 02:01:50;;;;;;;40.03;24.08;;;3.80;95.80;;;;;;2081201;28;20029;-72
2020/12/21 02:02:50;;;;;;;40.95;23.92;;;3.80;95.80;;;;;;2080720;28;20741;-72
2020/12/21 02:03:52;;;;;;;41.60;24.30;;;3.80;95.80;;;;;;2072580;28;20032;-72
2020/12/21 02:04:52;;;;;;;40.75;23.85;;;3.80;95.80;;;;;;2072581;28;20044;-72
2020/12/21 02:05:54;;;;;;;39.72;23.52;;;3.80;95.80;;;;;;2080593;28;20021;-72
2020/12/21 02:06:56;;;;;;;39.95;24.35;;;3.90;95.80;;;;;;2078662;28;20034;-71
2020/12/21 02:07:57;;;;;;;39.25;23.73;;;3.80;95.70;;;;;;2072624;28;20501;-72
2020/12/21 02:08:58;;;;;;;39.60;24.08;;;3.80;95.70;;;;;;2072798;28;20033;-71
2020/12/21 02:09:59;;;;;;;37.28;22.98;;;3.80;95.80;;;;;;2072980;28;20393;-72
2020/12/21 02:10:59;;;;;;;35.78;22.63;;;3.90;95.80;;;;;;2073109;28;20025;-71
2020/12/21 02:12:00;;;;;;;36.60;22.60;;;3.90;95.80;;;;;;2072354;28;20028;-72
2020/12/21 02:13:01;;;;;;;38.00;23.90;;;3.90;95.70;;;;;;2072466;28;20033;-71
2020/12/21 02:14:01;;;;;;;38.08;23.48;;;3.90;95.60;;;;;;2073001;28;20577;-71
2020/12/21 02:15:03;;;;;;;37.30;23.38;;;4.00;95.60;;;;;;2073057;28;20053;-73
2020/12/21 02:16:04;;;;;;;43.33;25.67;;;3.90;95.50;;;;;;2073010;28;20425;-72
2020/12/21 02:17:04;;;;;;;40.13;24.70;;;3.90;95.50;;;;;;2073077;28;20026;-73
2020/12/21 02:18:05;;;;;;;42.25;25.35;;;3.90;95.50;;;;;;2073143;28;20026;-72
2020/12/21 02:19:06;;;;;;;42.78;25.33;;;3.90;95.50;;;;;;2072674;28;20029;-72
2020/12/21 02:20:06;;;;;;;40.25;24.52;;;3.90;95.60;;;;;;2072452;28;20164;-72
2020/12/21 02:21:08;;;;;;;38.17;23.98;;;3.90;95.60;;;;;;2064272;28;20026;-71
2020/12/21 02:22:11;;;;;;;38.63;23.83;;;3.90;95.60;;;;;;2064181;28;20097;-72
2020/12/21 02:23:12;;;;;;;38.15;23.20;;;3.90;95.70;;;;;;2064551;28;20565;-72
2020/12/21 02:24:13;;;;;;;40.50;23.85;;;3.90;95.60;;;;;;2072223;28;20022;-71
2020/12/21 02:25:14;;;;;;;38.15;23.55;;;3.90;95.60;;;;;;2072857;28;20045;-71
2020/12/21 02:26:14;;;;;;;35.90;22.92;;;3.90;95.50;;;;;;2072979;28;20113;-71
2020/12/21 02:27:15;;;;;;;38.47;24.30;;;3.90;95.50;;;;;;2072985;28;20061;-72
2020/12/21 02:28:16;;;;;;;38.97;23.70;;;3.90;95.50;;;;;;2073063;28;20030;-71
2020/12/21 02:29:17;;;;;;;37.65;23.30;;;3.90;95.60;;;;;;2073119;28;20040;-72
2020/12/21 02:30:18;;;;;;;40.47;24.63;;;3.90;95.60;;;;;;2073411;28;20381;-71
2020/12/21 02:31:18;;;;;;;39.63;24.40;;;3.90;95.50;;;;;;2072947;28;20109;-71
2020/12/21 02:32:19;;;;;;;39.05;23.27;;;3.90;95.50;;;;;;2072853;28;20030;-71
2020/12/21 02:33:20;;;;;;;41.35;24.83;;;3.90;95.50;;;;;;2072803;28;20041;-71
2020/12/21 02:34:21;;;;;;;41.35;25.33;;;3.90;95.50;;;;;;2072771;28;20030;-72
2020/12/21 02:35:21;;;;;;;38.20;23.48;;;3.80;95.50;;;;;;2072852;28;20056;-72
2020/12/21 02:36:22;;;;;;;39.22;23.90;;;3.80;95.60;;;;;;2079883;28;20075;-72
2020/12/21 02:37:23;;;;;;;40.60;24.20;;;3.90;95.60;;;;;;2081040;28;20485;-72
2020/12/21 02:38:24;;;;;;;39.58;23.83;;;3.90;95.60;;;;;;2081056;28;20030;-72
2020/12/21 02:39:25;;;;;;;39.67;23.90;;;3.80;95.50;;;;;;2080727;28;20402;-71
2020/12/21 02:40:26;;;;;;;39.88;24.10;;;3.90;95.40;;;;;;2080347;28;20060;-72
2020/12/21 02:41:26;;;;;;;41.72;25.08;;;3.90;95.40;;;;;;2080318;28;20025;-71
2020/12/21 02:42:27;;;;;;;42.97;25.45;;;3.90;95.40;;;;;;2072156;28;20371;-72
2020/12/21 02:43:28;;;;;;;42.38;25.73;;;3.80;95.40;;;;;;2072138;28;20029;-72
2020/12/21 02:44:28;;;;;;;41.05;24.20;;;3.80;95.50;;;;;;2080399;28;20041;-71
2020/12/21 02:45:29;;;;;;;40.78;24.85;;;3.80;95.50;;;;;;2072092;28;20076;-71
2020/12/21 02:46:30;;;;;;;45.35;25.88;;;3.80;95.60;;;;;;2072023;28;20512;-72
2020/12/21 02:47:30;;;;;;;42.10;24.95;;;3.80;95.50;;;;;;2080446;28;20049;-72
2020/12/21 02:48:31;;;;;;;44.17;25.40;;;3.80;95.50;;;;;;2082028;28;20029;-72
2020/12/21 02:49:32;;;;;;;43.65;25.17;;;3.80;95.60;;;;;;2081509;28;20451;-71
2020/12/21 02:50:33;;;;;;;44.25;26.13;;;3.70;95.60;;;;;;2082026;28;20439;-71
2020/12/21 02:51:33;;;;;;;45.42;26.52;;;3.70;95.90;;;;;;2082298;28;20481;-72
2020/12/21 02:52:34;;;;;;;41.88;24.92;;;3.70;95.60;;;;;;2080735;28;20559;-71
2020/12/21 02:53:35;;;;;;;43.10;25.48;;;3.80;95.50;;;;;;2080185;28;20040;-70
2020/12/21 02:54:35;;;;;;;45.17;25.88;;;3.70;95.40;;;;;;2080111;28;20029;-70
2020/12/21 02:55:36;;;;;;;44.20;25.92;;;3.70;95.40;;;;;;2072084;28;20560;-71
2020/12/21 02:56:37;;;;;;;43.33;25.88;;;3.70;95.50;;;;;;2080319;28;20117;-70
2020/12/21 02:57:37;;;;;;;50.40;28.13;;;3.60;95.60;;;;;;2080396;28;20033;-71
2020/12/21 02:58:38;;;;;;;50.85;28.65;;;3.60;95.70;;;;;;2072094;28;20025;-70
2020/12/21 02:59:40;;;;;;;53.40;29.23;;;3.60;95.70;;;;;;2080093;28;20486;-70
2020/12/21 03:00:41;;;;;;;48.55;27.38;;;3.60;95.70;;;;;;2080979;28;20144;-71
2020/12/21 03:01:41;;;;;;;48.53;27.13;;;3.60;95.80;;;;;;2080682;28;20906;-71
2020/12/21 03:02:45;;;;;;;46.67;27.20;;;3.50;95.80;;;;;;2080931;28;20135;-71
2020/12/21 03:03:46;;;;;;;42.30;25.45;;;3.50;95.80;;;;;;2080868;28;20072;-71
2020/12/21 03:04:46;;;;;;;47.40;26.85;;;3.50;95.90;;;;;;2080815;28;20536;-71
2020/12/21 03:05:47;;;;;;;42.33;24.85;;;3.50;95.90;;;;;;2080105;28;20037;-72
2020/12/21 03:06:48;;;;;;;41.13;24.83;;;3.50;95.90;;;;;;2070930;28;20072;-69
2020/12/21 03:07:48;;;;;;;41.33;24.77;;;3.50;95.90;;;;;;2072132;28;20062;-73
2020/12/21 03:08:49;;;;;;;45.45;26.30;;;3.50;96.00;;;;;;2071858;28;20032;-72
2020/12/21 03:09:49;;;;;;;47.03;26.70;;;3.50;96.00;;;;;;2071963;28;20026;-72
2020/12/21 03:10:50;;;;;;;45.95;26.80;;;3.50;96.00;;;;;;2072657;28;20519;-71
2020/12/21 03:11:51;;;;;;;43.67;25.88;;;3.50;96.00;;;;;;2071901;28;20032;-70
2020/12/21 03:12:52;;;;;;;46.90;27.05;;;3.50;96.00;;;;;;2072072;28;20105;-69
2020/12/21 03:13:52;;;;;;;42.63;25.02;;;3.50;96.00;;;;;;2072635;28;20113;-70
2020/12/21 03:14:53;;;;;;;42.63;25.42;;;3.50;96.00;;;;;;2072687;28;20018;-72
2020/12/21 03:15:54;;;;;;;43.70;25.63;;;3.50;96.00;;;;;;2072602;28;20382;-71
2020/12/21 03:16:55;;;;;;;43.63;25.65;;;3.50;96.00;;;;;;2072682;28;20040;-72
2020/12/21 03:17:55;;;;;;;45.38;26.23;;;3.60;96.00;;;;;;2071913;28;20563;-72
2020/12/21 03:18:56;;;;;;;41.60;25.17;;;3.60;96.00;;;;;;2063590;28;20032;-71
2020/12/21 03:19:57;;;;;;;44.42;26.63;;;3.50;96.00;;;;;;2071968;28;20037;-72
2020/12/21 03:20:57;;;;;;;44.78;25.92;;;3.50;96.00;;;;;;2071850;28;20069;-72
2020/12/21 03:21:58;;;;;;;47.55;27.40;;;3.60;96.00;;;;;;2063626;28;20064;-71
2020/12/21 03:22:59;;;;;;;43.70;25.27;;;3.60;95.90;;;;;;2071988;28;20025;-73
2020/12/21 03:23:59;;;;;;;45.22;25.50;;;3.60;95.90;;;;;;2072561;28;20139;-71
2020/12/21 03:25:00;;;;;;;43.45;25.15;;;3.60;95.90;;;;;;2072543;28;20060;-71
2020/12/21 03:26:03;;;;;;;41.50;24.75;;;3.60;95.80;;;;;;2072663;28;20030;-72
2020/12/21 03:27:04;;;;;;;42.08;25.02;;;3.70;95.70;;;;;;2071575;28;20064;-71
2020/12/21 03:28:05;;;;;;;38.50;23.58;;;3.70;95.60;;;;;;2071962;28;20022;-72
2020/12/21 03:29:06;;;;;;;40.40;24.35;;;3.60;95.60;;;;;;2072226;28;20113;-72
2020/12/21 03:30:07;;;;;;;42.75;25.15;;;3.70;95.70;;;;;;2072379;28;20025;-71
2020/12/21 03:31:08;;;;;;;41.60;25.13;;;3.70;95.60;;;;;;2072463;28;20025;-72
2020/12/21 03:32:08;;;;;;;37.13;23.75;;;3.70;95.60;;;;;;2072327;28;20038;-71
2020/12/21 03:33:10;;;;;;;40.15;23.75;;;3.70;95.60;;;;;;2063601;28;20046;-71
2020/12/21 03:34:14;;;;;;;40.30;23.98;;;3.70;95.60;;;;;;2056048;28;20054;-72
2020/12/21 03:35:14;;;;;;;40.83;24.65;;;3.70;95.60;;;;;;2071777;28;20030;-71
2020/12/21 03:36:15;;;;;;;45.58;26.42;;;3.70;95.50;;;;;;2078438;28;20033;-72
2020/12/21 03:37:16;;;;;;;39.97;25.10;;;3.70;95.40;;;;;;2080643;28;20056;-70
2020/12/21 03:38:17;;;;;;;43.17;25.83;;;3.80;95.40;;;;;;2080556;28;20021;-72
2020/12/21 03:39:17;;;;;;;42.72;24.63;;;3.70;95.30;;;;;;2080293;28;20028;-71
2020/12/21 03:40:18;;;;;;;37.95;23.27;;;3.70;95.20;;;;;;2080647;28;20082;-70
2020/12/21 03:41:19;;;;;;;37.92;23.17;;;3.80;95.30;;;;;;2080502;28;20036;-69
2020/12/21 03:42:19;;;;;;;40.60;24.50;;;3.70;95.30;;;;;;2080466;28;20056;-71
2020/12/21 03:43:20;;;;;;;42.50;25.17;;;3.70;95.20;;;;;;2080616;28;20049;-69
2020/12/21 03:44:20;;;;;;;41.92;24.35;;;3.70;95.30;;;;;;2080642;28;20156;-69
2020/12/21 03:45:21;;;;;;;39.60;24.48;;;3.70;95.40;;;;;;2079687;28;20036;-72
2020/12/21 03:46:22;;;;;;;39.50;24.27;;;3.60;95.30;;;;;;2079929;28;20064;-69
2020/12/21 03:47:23;;;;;;;40.00;24.33;;;3.60;95.40;;;;;;2080538;28;20104;-68
2020/12/21 03:48:23;;;;;;;39.42;24.13;;;3.60;95.40;;;;;;2079928;28;20027;-72
2020/12/21 03:49:24;;;;;;;39.55;23.52;;;3.60;95.40;;;;;;2079526;28;20041;-68
2020/12/21 03:50:25;;;;;;;39.20;23.80;;;3.60;95.40;;;;;;2079932;28;20030;-68
2020/12/21 03:51:26;;;;;;;38.90;23.45;;;3.60;95.40;;;;;;2080613;28;20029;-70
2020/12/21 03:52:26;;;;;;;37.97;23.58;;;3.60;95.40;;;;;;2079857;28;20021;-71
2020/12/21 03:53:27;;;;;;;37.47;22.58;;;3.60;95.30;;;;;;2079908;28;20059;-71
2020/12/21 03:54:28;;;;;;;38.00;22.88;;;3.70;95.30;;;;;;2080566;28;20029;-72
2020/12/21 03:55:28;;;;;;;36.25;22.65;;;3.70;95.30;;;;;;2080404;28;20123;-70
2020/12/21 03:56:29;;;;;;;37.85;23.30;;;3.70;95.30;;;;;;2080527;28;20029;-70
2020/12/21 03:57:29;;;;;;;35.30;22.13;;;3.70;95.30;;;;;;2080708;28;20029;-71
2020/12/21 03:58:30;;;;;;;37.30;23.00;;;3.70;95.30;;;;;;2080716;28;20033;-70
2020/12/21 03:59:31;;;;;;;37.53;22.80;;;3.80;95.30;;;;;;2080259;28;20579;-71
2020/12/21 04:00:34;;;;;;;36.67;22.25;;;3.80;95.30;;;;;;2079707;28;20044;-73
2020/12/21 04:01:37;;;;;;;37.20;22.65;;;3.80;95.20;;;;;;2079783;28;20397;-70
2020/12/21 04:02:37;;;;;;;37.45;23.35;;;3.80;95.20;;;;;;2079736;28;20033;-71
2020/12/21 04:03:38;;;;;;;37.33;23.38;;;3.80;95.20;;;;;;2079836;28;20033;-71
2020/12/21 04:04:38;;;;;;;37.60;22.88;;;3.80;95.20;;;;;;2079698;28;20037;-71
2020/12/21 04:05:39;;;;;;;38.83;23.20;;;3.80;95.10;;;;;;2079690;28;20571;-70
2020/12/21 04:06:40;;;;;;;36.95;22.88;;;3.80;95.00;;;;;;2080305;28;20106;-71
2020/12/21 04:07:40;;;;;;;35.88;22.27;;;3.80;95.00;;;;;;2072194;28;20022;-73
2020/12/21 04:08:41;;;;;;;38.80;23.50;;;3.80;94.90;;;;;;2072347;28;20037;-71
2020/12/21 04:09:42;;;;;;;38.50;22.65;;;3.80;94.90;;;;;;2072044;28;20056;-72
2020/12/21 04:10:45;;;;;;;36.17;21.70;;;3.80;94.90;;;;;;2072249;28;20046;-71
2020/12/21 04:11:46;;;;;;;34.97;21.95;;;3.80;95.00;;;;;;2071485;28;20036;-72
2020/12/21 04:12:47;;;;;;;36.22;22.67;;;3.80;95.00;;;;;;2071633;28;20029;-71
2020/12/21 04:13:47;;;;;;;38.90;23.20;;;3.80;95.00;;;;;;2079722;28;20033;-72
2020/12/21 04:14:48;;;;;;;36.08;22.58;;;3.70;95.10;;;;;;2071685;28;20040;-72
2020/12/21 04:15:49;;;;;;;37.33;21.98;;;3.80;95.10;;;;;;2071627;28;20101;-71
2020/12/21 04:16:49;;;;;;;35.05;21.48;;;3.80;95.10;;;;;;2071580;28;20064;-71
2020/12/21 04:17:50;;;;;;;35.13;21.63;;;3.80;95.10;;;;;;2072319;28;20018;-71
2020/12/21 04:18:51;;;;;;;34.75;21.77;;;3.80;95.00;;;;;;2071201;28;20117;-71
2020/12/21 04:19:52;;;;;;;33.35;20.25;;;3.80;95.00;;;;;;2071665;28;20042;-72
2020/12/21 04:20:52;;;;;;;35.47;21.65;;;3.90;95.30;;;;;;2071354;28;20026;-71
2020/12/21 04:21:53;;;;;;;32.55;19.77;;;3.90;94.90;;;;;;2071526;28;20462;-71
2020/12/21 04:22:54;;;;;;;33.70;21.00;;;3.90;94.90;;;;;;2071554;28;20533;-72
2020/12/21 04:23:54;;;;;;;34.22;21.00;;;3.90;94.90;;;;;;2072046;28;20057;-71
2020/12/21 04:24:55;;;;;;;35.42;21.15;;;3.90;94.90;;;;;;2072180;28;20059;-72
2020/12/21 04:25:56;;;;;;;37.00;22.10;;;3.90;94.80;;;;;;2071354;28;20397;-72
2020/12/21 04:26:57;;;;;;;34.33;21.40;;;3.90;94.70;;;;;;2071491;28;20029;-71
2020/12/21 04:27:58;;;;;;;32.33;20.75;;;3.90;94.70;;;;;;2071458;28;20072;-72
2020/12/21 04:28:58;;;;;;;32.55;20.25;;;3.90;94.70;;;;;;2071236;28;20044;-71
2020/12/21 04:30:00;;;;;;;32.65;20.38;;;3.90;94.80;;;;;;2072297;28;20018;-72
2020/12/21 04:31:05;;;;;;;36.58;21.95;;;3.90;94.80;;;;;;2072188;28;20022;-72
2020/12/21 04:32:05;;;;;;;31.92;19.98;;;3.90;94.80;;;;;;2072068;28;20022;-72
2020/12/21 04:33:06;;;;;;;35.30;21.08;;;3.90;94.80;;;;;;2072195;28;20053;-72
2020/12/21 04:34:06;;;;;;;31.55;19.88;;;3.90;94.70;;;;;;2072180;28;20021;-71
2020/12/21 04:35:07;;;;;;;31.33;19.85;;;3.90;94.70;;;;;;2071394;28;20474;-72
2020/12/21 04:36:09;;;;;;;34.55;21.27;;;3.90;94.70;;;;;;2076357;28;20021;-71
2020/12/21 04:37:10;;;;;;;35.67;21.63;;;4.00;94.60;;;;;;2087778;28;20028;-71
2020/12/21 04:38:11;;;;;;;36.95;21.58;;;3.90;94.60;;;;;;2080320;28;20041;-71
2020/12/21 04:39:12;;;;;;;36.03;22.40;;;3.90;94.60;;;;;;2080174;28;20065;-72
2020/12/21 04:40:12;;;;;;;36.25;21.27;;;3.90;94.50;;;;;;2073310;28;20041;-72
2020/12/21 04:41:13;;;;;;;32.80;20.83;;;3.90;94.50;;;;;;2081327;28;20079;-71
2020/12/21 04:42:14;;;;;;;36.05;22.25;;;3.90;94.50;;;;;;2081987;28;20060;-72
2020/12/21 04:43:15;;;;;;;35.83;21.55;;;3.90;94.50;;;;;;2081948;28;20108;-71
2020/12/21 04:44:16;;;;;;;34.78;21.17;;;3.90;94.40;;;;;;2082006;28;20025;-71
2020/12/21 04:45:18;;;;;;;36.78;20.90;;;3.90;94.40;;;;;;2081870;28;20034;-71
2020/12/21 04:46:18;;;;;;;36.10;22.27;;;3.90;94.40;;;;;;2082150;28;20033;-71
2020/12/21 04:47:20;;;;;;;36.67;21.30;;;3.90;94.40;;;;;;2082163;28;20108;-71
2020/12/21 04:48:24;;;;;;;35.63;21.88;;;3.80;94.50;;;;;;2081832;28;20497;-70
2020/12/21 04:49:25;;;;;;;35.28;21.40;;;3.80;94.50;;;;;;2081582;28;20100;-73
2020/12/21 04:50:32;;;;;;;38.13;23.40;;;3.80;94.50;;;;;;2082523;28;20029;-70
2020/12/21 04:51:34;;;;;;;36.42;22.83;;;3.80;94.50;;;;;;2081330;28;20057;-72
2020/12/21 04:52:43;;;;;;;35.30;21.80;;;3.80;94.50;;;;;;2081474;28;20132;-72
2020/12/21 04:53:44;;;;;;;34.25;20.98;;;3.80;94.60;;;;;;2081968;28;20060;-71
2020/12/21 04:54:45;;;;;;;34.97;21.55;;;3.90;94.60;;;;;;2081315;28;20087;-71
2020/12/21 04:55:46;;;;;;;36.78;21.52;;;3.90;94.60;;;;;;2073283;28;20065;-71
2020/12/21 04:56:47;;;;;;;35.10;21.17;;;3.90;94.60;;;;;;2081363;28;20122;-71
2020/12/21 04:58:01;;;;;;;36.80;21.73;;;3.90;94.50;;;;;;2081870;28;20019;-71
2020/12/21 04:59:02;;;;;;;32.97;20.30;;;3.90;94.50;;;;;;2081636;28;20032;-71
2020/12/21 05:00:03;;;;;;;35.42;22.08;;;3.90;94.50;;;;;;2081311;28;20127;-71
2020/12/21 05:01:04;;;;;;;33.78;20.42;;;3.90;94.40;;;;;;2081345;28;20041;-73
2020/12/21 05:02:05;;;;;;;34.67;21.17;;;3.90;94.50;;;;;;2081761;28;20068;-70
2020/12/21 05:03:06;;;;;;;35.45;20.73;;;3.80;94.50;;;;;;2081833;28;20437;-71
2020/12/21 05:04:07;;;;;;;36.33;21.40;;;3.80;94.50;;;;;;2081203;28;20033;-71
2020/12/21 05:05:08;;;;;;;33.65;20.60;;;3.80;94.50;;;;;;2072969;28;20026;-71
2020/12/21 05:06:11;;;;;;;34.65;21.67;;;3.80;94.50;;;;;;2081140;28;20112;-70
2020/12/21 05:07:15;;;;;;;33.78;20.75;;;3.80;94.60;;;;;;2077193;28;20096;-71
2020/12/21 05:08:17;;;;;;;33.05;20.67;;;3.80;94.60;;;;;;2064864;28;20037;-72
2020/12/21 05:09:21;;;;;;;34.65;20.95;;;3.80;94.70;;;;;;2064875;28;20026;-71
2020/12/21 05:10:22;;;;;;;33.38;20.23;;;3.90;94.70;;;;;;2072985;28;20026;-69
2020/12/21 05:11:23;;;;;;;34.75;20.73;;;3.90;94.60;;;;;;2072825;28;20049;-71
2020/12/21 05:12:24;;;;;;;34.88;20.17;;;3.90;94.50;;;;;;2073073;28;20026;-70
2020/12/21 05:13:28;;;;;;;36.15;21.80;;;3.90;94.50;;;;;;2072873;28;20033;-71